createdAt,value
2017-12-25T00:00:33.915Z,9.1
2017-12-25T00:01:35.392Z,9.2
2017-12-25T00:02:36.791Z,9.2
2017-12-25T00:03:38.272Z,9.1
2017-12-25T00:04:39.675Z,9.3
2017-12-25T00:05:41.155Z,9.2
2017-12-25T00:06:42.554Z,9.2
2017-12-25T00:07:44.037Z,9.2
2017-12-25T00:08:45.435Z,9.3
2017-12-25T00:09:46.919Z,9.2
2017-12-25T00:10:48.317Z,9.2
2017-12-25T00:11:49.723Z,9.2
2017-12-25T00:12:51.235Z,9.2
2017-12-25T00:13:52.634Z,9.2
2017-12-25T00:14:54.036Z,9.2
2017-12-25T00:15:55.464Z,9.3
2017-12-25T00:16:56.861Z,9.2
2017-12-25T00:17:58.359Z,9.3
2017-12-25T00:18:59.763Z,9.2
2017-12-25T00:20:01.219Z,9.2
2017-12-25T00:21:02.612Z,9.2
2017-12-25T00:22:04.098Z,9.2
2017-12-25T00:23:05.526Z,9.2
2017-12-25T00:24:06.979Z,9.2
2017-12-25T00:25:08.381Z,9.2
2017-12-25T00:26:09.786Z,9.1
2017-12-25T00:27:11.299Z,9.2
2017-12-25T00:28:12.698Z,9.2
2017-12-25T00:29:14.099Z,9.2
2017-12-25T00:30:15.518Z,9.2
2017-12-25T00:31:16.921Z,9.3
2017-12-25T00:32:18.323Z,9.3
2017-12-25T00:33:19.839Z,9.2
2017-12-25T00:34:21.238Z,9.2
2017-12-25T00:35:22.720Z,9.2
2017-12-25T00:36:24.119Z,9.2
2017-12-25T00:37:25.617Z,9.1
2017-12-25T00:38:27.019Z,9.1
2017-12-25T00:39:28.483Z,9.2
2017-12-25T00:40:29.887Z,9.3
2017-12-25T00:41:31.366Z,9.2
2017-12-25T00:42:32.762Z,9.2
2017-12-25T00:43:34.246Z,9.2
2017-12-25T00:44:35.661Z,9.2
2017-12-25T00:45:37.127Z,9.2
2017-12-25T00:46:38.529Z,9.3
2017-12-25T00:47:40.012Z,9.3
2017-12-25T00:48:41.417Z,9.2
2017-12-25T00:49:43.282Z,9.3
2017-12-25T00:50:44.683Z,9.2
2017-12-25T00:51:46.184Z,9.2
2017-12-25T00:52:47.608Z,9.2
2017-12-25T00:53:49.071Z,9.2
2017-12-25T00:54:50.488Z,9.2
2017-12-25T00:55:51.941Z,9.2
2017-12-25T00:56:53.340Z,9.2
2017-12-25T00:57:54.745Z,9.3
2017-12-25T00:58:56.276Z,9.2
2017-12-25T00:59:57.675Z,9.2
2017-12-25T01:00:59.084Z,9.3
2017-12-25T01:02:00.582Z,9.3
2017-12-25T01:03:01.980Z,9.2
2017-12-25T01:04:03.382Z,9.3
2017-12-25T01:05:04.804Z,9.2
2017-12-25T01:06:06.212Z,9.2
2017-12-25T01:07:07.625Z,9.1
2017-12-25T01:08:09.124Z,9.1
2017-12-25T01:09:10.527Z,9.2
2017-12-25T01:10:11.925Z,9.2
2017-12-25T01:11:13.340Z,9.2
2017-12-25T01:12:14.742Z,9.2
2017-12-25T01:13:16.221Z,9.2
2017-12-25T01:14:17.629Z,9.1
2017-12-25T01:15:19.118Z,9.2
2017-12-25T01:16:20.594Z,9.2
2017-12-25T01:17:22.086Z,9.2
2017-12-25T01:18:23.496Z,9.1
2017-12-25T01:19:24.964Z,9.2
2017-12-25T01:20:26.368Z,9.2
2017-12-25T01:21:27.771Z,9.2
2017-12-25T01:22:29.296Z,9.2
2017-12-25T01:23:30.708Z,9.1
2017-12-25T01:24:32.106Z,9.3
2017-12-25T01:25:33.607Z,9.2
2017-12-25T01:26:35.013Z,9.3
2017-12-25T01:27:36.415Z,9.2
2017-12-25T01:28:37.925Z,9.2
2017-12-25T01:29:39.328Z,9.1
2017-12-25T01:30:40.809Z,9.1
2017-12-25T01:31:42.208Z,9.2
2017-12-25T01:32:43.690Z,9.1
2017-12-25T01:33:45.476Z,9.1
2017-12-25T01:34:47.000Z,9.1
2017-12-25T01:35:48.410Z,9.2
2017-12-25T01:36:49.863Z,9.1
2017-12-25T01:37:51.299Z,9.1
2017-12-25T01:38:52.732Z,9.1
2017-12-25T01:39:54.183Z,9.1
2017-12-25T01:40:55.634Z,9.2
2017-12-25T01:41:57.035Z,9.1
2017-12-25T01:42:58.506Z,9.1
2017-12-25T01:43:59.910Z,9.1
2017-12-25T01:45:01.384Z,9.0
2017-12-25T01:46:02.784Z,9.0
2017-12-25T01:47:04.262Z,9.1
2017-12-25T01:48:05.741Z,9.0
2017-12-25T01:49:07.248Z,9.0
2017-12-25T01:50:08.653Z,8.9
2017-12-25T01:51:10.127Z,8.9
2017-12-25T01:52:11.531Z,9.0
2017-12-25T01:53:13.009Z,9.0
2017-12-25T01:54:14.410Z,9.1
2017-12-25T01:55:15.888Z,9.0
2017-12-25T01:56:17.290Z,9.0
2017-12-25T01:57:18.769Z,9.0
2017-12-25T01:58:20.175Z,8.9
2017-12-25T01:59:21.650Z,8.9
2017-12-25T02:00:23.051Z,9.0
2017-12-25T02:01:24.530Z,9.0
2017-12-25T02:02:25.935Z,8.9
2017-12-25T02:03:27.349Z,9.0
2017-12-25T02:04:28.858Z,9.0
2017-12-25T02:05:30.268Z,8.9
2017-12-25T02:06:31.680Z,8.9
2017-12-25T02:07:33.175Z,8.9
2017-12-25T02:08:34.573Z,9.0
2017-12-25T02:09:36.051Z,8.9
2017-12-25T02:10:37.458Z,9.0
2017-12-25T02:11:38.947Z,9.0
2017-12-25T02:12:40.406Z,8.9
2017-12-25T02:13:41.838Z,8.9
2017-12-25T02:14:43.235Z,8.9
2017-12-25T02:15:44.699Z,8.9
2017-12-25T02:16:46.096Z,9.0
2017-12-25T02:17:47.499Z,9.0
2017-12-25T02:18:48.916Z,8.9
2017-12-25T02:19:50.320Z,8.9
2017-12-25T02:20:51.723Z,9.0
2017-12-25T02:21:53.243Z,8.9
2017-12-25T02:22:54.644Z,9.0
2017-12-25T02:23:56.122Z,8.9
2017-12-25T02:24:57.520Z,9.0
2017-12-25T02:25:59.000Z,8.9
2017-12-25T02:27:00.403Z,9.0
2017-12-25T02:28:01.796Z,8.9
2017-12-25T02:29:03.218Z,9.0
2017-12-25T02:30:04.619Z,8.9
2017-12-25T02:31:06.063Z,9.0
2017-12-25T02:32:07.543Z,8.9
2017-12-25T02:33:08.964Z,9.0
2017-12-25T02:34:10.362Z,8.9
2017-12-25T02:35:11.860Z,8.9
2017-12-25T02:36:13.260Z,8.9
2017-12-25T02:37:14.681Z,8.9
2017-12-25T02:38:16.181Z,8.9
2017-12-25T02:39:17.590Z,8.9
2017-12-25T02:40:19.063Z,8.9
2017-12-25T02:41:20.465Z,8.9
2017-12-25T02:42:21.893Z,8.9
2017-12-25T02:43:23.386Z,8.9
2017-12-25T02:44:24.784Z,9.0
2017-12-25T02:45:26.202Z,8.9
2017-12-25T02:46:28.094Z,8.9
2017-12-25T02:47:29.520Z,8.9
2017-12-25T02:48:30.918Z,8.9
2017-12-25T02:49:32.434Z,8.9
2017-12-25T02:50:33.843Z,8.9
2017-12-25T02:51:35.236Z,8.9
2017-12-25T02:52:36.656Z,8.9
2017-12-25T02:53:38.060Z,8.9
2017-12-25T02:54:39.536Z,8.9
2017-12-25T02:55:40.939Z,8.9
2017-12-25T02:56:42.416Z,8.8
2017-12-25T02:57:43.820Z,8.8
2017-12-25T02:58:45.234Z,8.8
2017-12-25T02:59:46.736Z,8.8
2017-12-25T03:00:48.533Z,8.8
2017-12-25T03:01:49.972Z,8.8
2017-12-25T03:02:51.469Z,8.8
2017-12-25T03:03:52.875Z,8.9
2017-12-25T03:04:54.347Z,8.7
2017-12-25T03:05:55.748Z,8.8
2017-12-25T03:06:57.232Z,8.8
2017-12-25T03:07:58.630Z,8.8
2017-12-25T03:09:00.110Z,8.8
2017-12-25T03:10:01.546Z,8.8
2017-12-25T03:11:03.000Z,8.7
2017-12-25T03:12:04.432Z,8.8
2017-12-25T03:13:05.872Z,8.8
2017-12-25T03:14:07.278Z,8.7
2017-12-25T03:15:08.675Z,8.8
2017-12-25T03:16:10.091Z,8.8
2017-12-25T03:17:11.493Z,8.8
2017-12-25T03:18:12.898Z,8.8
2017-12-25T03:19:14.416Z,8.8
2017-12-25T03:20:15.823Z,8.7
2017-12-25T03:21:17.226Z,8.7
2017-12-25T03:22:18.733Z,8.7
2017-12-25T03:23:20.137Z,8.7
2017-12-25T03:24:21.538Z,8.7
2017-12-25T03:25:23.054Z,8.8
2017-12-25T03:26:24.451Z,8.8
2017-12-25T03:27:26.957Z,8.7
2017-12-25T03:28:28.377Z,8.8
2017-12-25T03:29:29.808Z,8.8
2017-12-25T03:30:31.282Z,8.8
2017-12-25T03:31:32.686Z,8.7
2017-12-25T03:32:34.085Z,8.8
2017-12-25T03:33:35.601Z,8.7
2017-12-25T03:34:37.003Z,8.8
2017-12-25T03:35:39.506Z,8.8
2017-12-25T03:36:40.909Z,8.7
2017-12-25T03:37:42.387Z,8.8
2017-12-25T03:38:43.786Z,8.8
2017-12-25T03:39:45.268Z,8.8
2017-12-25T03:40:46.675Z,8.8
2017-12-25T03:41:48.147Z,8.8
2017-12-25T03:42:49.547Z,8.7
2017-12-25T03:43:50.950Z,8.8
2017-12-25T03:44:52.361Z,8.7
2017-12-25T03:45:53.765Z,8.7
2017-12-25T03:46:55.163Z,8.7
2017-12-25T03:47:56.586Z,8.7
2017-12-25T03:48:57.989Z,8.8
2017-12-25T03:49:59.394Z,8.7
2017-12-25T03:51:00.905Z,8.7
2017-12-25T03:52:02.314Z,8.8
2017-12-25T03:53:03.718Z,8.7
2017-12-25T03:54:05.231Z,8.7
2017-12-25T03:55:06.659Z,8.7
2017-12-25T03:56:08.057Z,8.7
2017-12-25T03:57:09.545Z,8.7
2017-12-25T03:58:10.974Z,8.7
2017-12-25T03:59:12.376Z,8.7
2017-12-25T04:00:13.872Z,8.6
2017-12-25T04:01:15.340Z,8.7
2017-12-25T04:02:16.876Z,8.7
2017-12-25T04:03:18.266Z,8.6
2017-12-25T04:04:19.699Z,8.7
2017-12-25T04:05:21.175Z,8.7
2017-12-25T04:06:22.577Z,8.7
2017-12-25T04:07:23.987Z,8.7
2017-12-25T04:08:25.394Z,8.6
2017-12-25T04:09:26.795Z,8.7
2017-12-25T04:10:28.195Z,8.7
2017-12-25T04:11:29.618Z,8.7
2017-12-25T04:12:31.012Z,8.7
2017-12-25T04:13:32.416Z,8.7
2017-12-25T04:14:33.830Z,8.7
2017-12-25T04:15:35.231Z,8.7
2017-12-25T04:16:36.631Z,8.7
2017-12-25T04:17:38.049Z,8.7
2017-12-25T04:18:39.449Z,8.7
2017-12-25T04:19:40.852Z,8.7
2017-12-25T04:20:42.289Z,8.7
2017-12-25T04:21:43.685Z,8.7
2017-12-25T04:22:45.088Z,8.7
2017-12-25T04:23:46.597Z,8.6
2017-12-25T04:24:48.004Z,8.7
2017-12-25T04:25:54.065Z,8.7
2017-12-25T04:26:59.901Z,8.7
2017-12-25T04:28:01.139Z,8.7
2017-12-25T04:29:02.542Z,8.7
2017-12-25T04:30:04.038Z,8.7
2017-12-25T04:31:05.438Z,8.7
2017-12-25T04:32:06.843Z,8.7
2017-12-25T04:33:08.360Z,8.7
2017-12-25T04:34:09.761Z,8.7
2017-12-25T04:35:11.164Z,8.7
2017-12-25T04:36:12.679Z,8.7
2017-12-25T04:37:14.085Z,8.7
2017-12-25T04:38:15.485Z,8.7
2017-12-25T04:39:16.900Z,8.6
2017-12-25T04:40:18.311Z,8.7
2017-12-25T04:41:19.718Z,8.7
2017-12-25T04:42:21.221Z,8.6
2017-12-25T04:43:22.627Z,8.7
2017-12-25T04:44:24.030Z,8.6
2017-12-25T04:45:25.555Z,8.7
2017-12-25T04:46:26.962Z,8.7
2017-12-25T04:47:28.425Z,8.6
2017-12-25T04:48:29.826Z,8.7
2017-12-25T04:49:31.303Z,8.7
2017-12-25T04:50:32.726Z,8.7
2017-12-25T04:51:34.184Z,8.6
2017-12-25T04:52:35.587Z,8.6
2017-12-25T04:53:37.064Z,8.6
2017-12-25T04:54:38.465Z,8.6
2017-12-25T04:55:41.815Z,8.4
2017-12-25T04:56:43.127Z,8.5
2017-12-25T04:57:44.533Z,8.5
2017-12-25T04:58:45.940Z,8.5
2017-12-25T04:59:47.448Z,8.5
2017-12-25T05:00:48.848Z,8.5
2017-12-25T05:01:50.254Z,8.5
2017-12-25T05:02:51.769Z,8.5
2017-12-25T05:03:53.176Z,8.5
2017-12-25T05:04:54.580Z,8.5
2017-12-25T05:05:56.091Z,8.6
2017-12-25T05:06:57.501Z,8.5
2017-12-25T05:07:58.972Z,8.6
2017-12-25T05:09:00.373Z,8.6
2017-12-25T05:10:01.852Z,8.6
2017-12-25T05:11:04.112Z,8.6
2017-12-25T05:12:07.199Z,8.7
2017-12-25T05:13:08.606Z,8.6
2017-12-25T05:14:10.002Z,8.6
2017-12-25T05:15:11.511Z,8.7
2017-12-25T05:16:12.913Z,8.6
2017-12-25T05:17:14.314Z,8.6
2017-12-25T05:18:15.742Z,8.6
2017-12-25T05:19:17.139Z,8.7
2017-12-25T05:20:18.554Z,8.6
2017-12-25T05:21:20.052Z,8.6
2017-12-25T05:22:21.455Z,8.6
2017-12-25T05:23:23.258Z,8.6
2017-12-25T05:24:24.680Z,8.6
2017-12-25T05:25:26.085Z,8.6
2017-12-25T05:26:27.591Z,8.6
2017-12-25T05:27:29.027Z,8.6
2017-12-25T05:28:30.457Z,8.7
2017-12-25T05:29:31.894Z,8.6
2017-12-25T05:30:33.300Z,8.6
2017-12-25T05:31:34.762Z,8.6
2017-12-25T05:32:36.164Z,8.6
2017-12-25T05:33:37.567Z,8.5
2017-12-25T05:34:39.086Z,8.6
2017-12-25T05:35:40.514Z,8.5
2017-12-25T05:36:41.914Z,8.5
2017-12-25T05:37:43.412Z,8.5
2017-12-25T05:38:44.808Z,8.5
2017-12-25T05:39:46.204Z,8.5
2017-12-25T05:40:47.862Z,8.5
2017-12-25T05:41:49.238Z,8.5
2017-12-25T05:42:50.636Z,8.5
2017-12-25T05:43:52.251Z,8.5
2017-12-25T05:44:53.665Z,8.5
2017-12-25T05:45:55.067Z,8.4
2017-12-25T05:46:56.678Z,8.5
2017-12-25T05:47:58.084Z,8.6
2017-12-25T05:48:59.494Z,8.5
2017-12-25T05:50:00.906Z,8.6
2017-12-25T05:51:02.307Z,8.6
2017-12-25T05:52:03.715Z,8.6
2017-12-25T05:53:05.229Z,8.5
2017-12-25T05:54:06.631Z,8.5
2017-12-25T05:55:08.047Z,8.5
2017-12-25T05:56:09.534Z,8.5
2017-12-25T05:57:10.936Z,8.5
2017-12-25T05:58:12.344Z,8.4
2017-12-25T05:59:13.855Z,8.4
2017-12-25T06:00:15.257Z,8.5
2017-12-25T06:01:16.669Z,8.5
2017-12-25T06:02:18.176Z,8.5
2017-12-25T06:03:19.583Z,8.6
2017-12-25T06:04:21.059Z,8.6
2017-12-25T06:05:22.462Z,8.6
2017-12-25T06:06:23.857Z,8.6
2017-12-25T06:07:25.483Z,8.7
2017-12-25T06:08:26.869Z,8.6
2017-12-25T06:09:28.275Z,8.7
2017-12-25T06:10:29.816Z,8.7
2017-12-25T06:11:31.215Z,8.7
2017-12-25T06:12:32.617Z,8.7
2017-12-25T06:13:34.231Z,8.7
2017-12-25T06:14:35.628Z,8.6
2017-12-25T06:15:37.041Z,8.6
2017-12-25T06:16:38.690Z,8.6
2017-12-25T06:17:40.450Z,8.7
2017-12-25T06:18:42.047Z,8.8
2017-12-25T06:19:43.442Z,8.7
2017-12-25T06:20:44.855Z,8.7
2017-12-25T06:21:46.365Z,8.8
2017-12-25T06:22:47.768Z,8.8
2017-12-25T06:23:49.161Z,8.8
2017-12-25T06:24:50.689Z,8.8
2017-12-25T06:25:52.089Z,8.8
2017-12-25T06:26:53.488Z,8.8
2017-12-25T06:27:55.008Z,8.8
2017-12-25T06:28:56.415Z,8.7
2017-12-25T06:29:57.806Z,8.8
2017-12-25T06:30:59.328Z,8.8
2017-12-25T06:32:00.755Z,8.8
2017-12-25T06:33:02.138Z,8.8
2017-12-25T06:34:03.649Z,8.9
2017-12-25T06:35:05.053Z,8.8
2017-12-25T06:36:06.452Z,8.8
2017-12-25T06:37:07.876Z,8.7
2017-12-25T06:38:10.796Z,8.8
2017-12-25T06:39:12.181Z,8.7
2017-12-25T06:40:13.585Z,8.8
2017-12-25T06:41:15.062Z,8.7
2017-12-25T06:42:16.463Z,8.8
2017-12-25T06:43:17.942Z,8.8
2017-12-25T06:44:19.347Z,8.8
2017-12-25T06:45:20.823Z,8.7
2017-12-25T06:46:22.661Z,8.7
2017-12-25T06:47:24.143Z,8.7
2017-12-25T06:48:25.556Z,8.7
2017-12-25T06:49:26.957Z,8.9
2017-12-25T06:50:28.360Z,8.8
2017-12-25T06:51:29.773Z,8.8
2017-12-25T06:52:31.178Z,8.9
2017-12-25T06:53:32.579Z,8.8
2017-12-25T06:54:33.992Z,8.8
2017-12-25T06:55:35.398Z,8.8
2017-12-25T06:56:36.816Z,8.9
2017-12-25T06:57:38.315Z,8.8
2017-12-25T06:58:39.715Z,8.9
2017-12-25T06:59:41.194Z,8.9
2017-12-25T07:00:42.602Z,8.9
2017-12-25T07:01:44.006Z,8.9
2017-12-25T07:02:45.520Z,8.8
2017-12-25T07:03:46.925Z,8.8
2017-12-25T07:04:48.326Z,8.9
2017-12-25T07:05:49.839Z,8.8
2017-12-25T07:06:51.240Z,8.8
2017-12-25T07:07:52.719Z,8.8
2017-12-25T07:08:54.120Z,8.8
2017-12-25T07:10:02.776Z,8.9
2017-12-25T07:11:03.957Z,8.9
2017-12-25T07:12:05.445Z,8.9
2017-12-25T07:13:06.847Z,8.9
2017-12-25T07:14:09.351Z,8.9
2017-12-25T07:15:10.754Z,8.9
2017-12-25T07:16:12.165Z,8.8
2017-12-25T07:17:13.667Z,8.8
2017-12-25T07:18:15.075Z,8.8
2017-12-25T07:19:16.519Z,8.9
2017-12-25T07:20:18.003Z,8.9
2017-12-25T07:21:19.409Z,8.9
2017-12-25T07:22:20.830Z,8.9
2017-12-25T07:23:22.317Z,8.9
2017-12-25T07:24:23.712Z,8.9
2017-12-25T07:25:25.193Z,8.9
2017-12-25T07:26:26.592Z,8.8
2017-12-25T07:27:27.997Z,8.9
2017-12-25T07:28:29.515Z,8.9
2017-12-25T07:29:30.952Z,8.8
2017-12-25T07:30:32.352Z,8.9
2017-12-25T07:31:33.848Z,9.0
2017-12-25T07:32:35.250Z,8.9
2017-12-25T07:33:36.737Z,8.9
2017-12-25T07:34:38.139Z,9.0
2017-12-25T07:35:39.720Z,9.1
2017-12-25T07:36:41.074Z,9.0
2017-12-25T07:37:42.579Z,8.9
2017-12-25T07:38:43.982Z,8.9
2017-12-25T07:39:45.459Z,8.9
2017-12-25T07:40:46.867Z,8.9
2017-12-25T07:41:48.270Z,8.9
2017-12-25T07:42:49.782Z,8.9
2017-12-25T07:43:51.187Z,8.9
2017-12-25T07:44:52.589Z,8.9
2017-12-25T07:45:54.010Z,8.9
2017-12-25T07:46:55.416Z,8.9
2017-12-25T07:47:56.819Z,8.9
2017-12-25T07:48:58.321Z,9.1
2017-12-25T07:49:59.748Z,9.0
2017-12-25T07:51:01.150Z,9.0
2017-12-25T07:52:02.644Z,9.0
2017-12-25T07:53:04.446Z,9.0
2017-12-25T07:54:05.935Z,9.0
2017-12-25T07:55:07.722Z,9.0
2017-12-25T07:56:09.239Z,9.0
2017-12-25T07:57:10.663Z,9.1
2017-12-25T07:58:12.290Z,9.0
2017-12-25T07:59:13.752Z,9.0
2017-12-25T08:00:15.223Z,9.1
2017-12-25T08:01:16.573Z,9.0
2017-12-25T08:02:18.102Z,9.1
2017-12-25T08:03:19.497Z,9.1
2017-12-25T08:04:20.954Z,9.1
2017-12-25T08:05:22.367Z,9.1
2017-12-25T08:06:23.843Z,9.1
2017-12-25T08:07:25.242Z,9.0
2017-12-25T08:08:26.647Z,9.2
2017-12-25T08:09:28.182Z,9.1
2017-12-25T08:10:29.590Z,9.2
2017-12-25T08:11:30.996Z,9.1
2017-12-25T08:12:32.480Z,9.1
2017-12-25T08:13:33.885Z,9.1
2017-12-25T08:14:35.365Z,9.1
2017-12-25T08:15:36.770Z,9.1
2017-12-25T08:16:38.178Z,9.0
2017-12-25T08:17:39.583Z,9.1
2017-12-25T08:18:40.989Z,9.2
2017-12-25T08:19:42.463Z,9.1
2017-12-25T08:20:43.865Z,9.2
2017-12-25T08:21:45.271Z,9.2
2017-12-25T08:22:46.673Z,9.1
2017-12-25T08:23:48.126Z,9.2
2017-12-25T08:24:49.526Z,9.2
2017-12-25T08:25:51.012Z,9.2
2017-12-25T08:26:52.423Z,9.2
2017-12-25T08:27:53.825Z,9.2
2017-12-25T08:28:55.323Z,9.2
2017-12-25T08:29:56.784Z,9.2
2017-12-25T08:30:58.127Z,9.2
2017-12-25T08:31:59.643Z,9.2
2017-12-25T08:33:01.090Z,9.2
2017-12-25T08:34:02.533Z,9.2
2017-12-25T08:35:03.965Z,9.3
2017-12-25T08:36:05.366Z,9.1
2017-12-25T08:37:06.771Z,9.3
2017-12-25T08:38:08.283Z,9.1
2017-12-25T08:39:09.688Z,9.2
2017-12-25T08:40:11.165Z,9.2
2017-12-25T08:41:12.625Z,9.2
2017-12-25T08:42:14.043Z,9.2
2017-12-25T08:43:15.447Z,9.2
2017-12-25T08:44:16.857Z,9.2
2017-12-25T08:45:18.386Z,9.2
2017-12-25T08:46:19.768Z,9.3
2017-12-25T08:47:21.174Z,9.2
2017-12-25T08:48:22.687Z,9.2
2017-12-25T08:49:24.099Z,9.3
2017-12-25T08:50:25.591Z,9.3
2017-12-25T08:51:26.995Z,9.2
2017-12-25T08:52:28.452Z,9.2
2017-12-25T08:53:29.863Z,9.3
2017-12-25T08:54:31.331Z,9.3
2017-12-25T08:55:32.741Z,9.3
2017-12-25T08:56:34.251Z,9.3
2017-12-25T08:57:35.655Z,9.4
2017-12-25T08:58:37.080Z,9.4
2017-12-25T08:59:38.535Z,9.4
2017-12-25T09:00:39.933Z,9.4
2017-12-25T09:01:41.357Z,9.4
2017-12-25T09:02:42.852Z,9.4
2017-12-25T09:03:44.268Z,9.4
2017-12-25T09:04:45.674Z,9.4
2017-12-25T09:05:47.174Z,9.3
2017-12-25T09:06:48.580Z,9.3
2017-12-25T09:07:49.993Z,9.4
2017-12-25T09:08:51.513Z,9.4
2017-12-25T09:09:52.919Z,9.4
2017-12-25T09:10:54.378Z,9.4
2017-12-25T09:11:55.782Z,9.4
2017-12-25T09:12:57.259Z,9.5
2017-12-25T09:13:59.041Z,9.4
2017-12-25T09:15:00.549Z,9.3
2017-12-25T09:16:01.953Z,9.5
2017-12-25T09:17:03.431Z,9.4
2017-12-25T09:18:04.838Z,9.5
2017-12-25T09:19:06.244Z,9.5
2017-12-25T09:20:07.745Z,9.5
2017-12-25T09:21:09.156Z,9.4
2017-12-25T09:22:10.632Z,9.5
2017-12-25T09:23:12.038Z,9.5
2017-12-25T09:24:13.444Z,9.4
2017-12-25T09:25:14.953Z,9.4
2017-12-25T09:26:16.361Z,9.5
2017-12-25T09:27:17.763Z,9.5
2017-12-25T09:28:19.275Z,9.4
2017-12-25T09:29:20.677Z,9.4
2017-12-25T09:30:22.151Z,9.4
2017-12-25T09:31:23.561Z,9.5
2017-12-25T09:32:25.033Z,9.5
2017-12-25T09:33:26.435Z,9.5
2017-12-25T09:34:27.838Z,9.5
2017-12-25T09:35:29.353Z,9.5
2017-12-25T09:36:30.758Z,9.5
2017-12-25T09:37:32.194Z,9.5
2017-12-25T09:38:33.674Z,9.5
2017-12-25T09:39:35.093Z,9.5
2017-12-25T09:40:36.505Z,9.6
2017-12-25T09:41:38.025Z,9.6
2017-12-25T09:42:39.432Z,9.5
2017-12-25T09:43:40.838Z,9.5
2017-12-25T09:44:42.316Z,9.6
2017-12-25T09:45:43.728Z,9.5
2017-12-25T09:46:45.134Z,9.6
2017-12-25T09:47:46.637Z,9.6
2017-12-25T09:48:48.042Z,9.6
2017-12-25T09:49:49.451Z,9.5
2017-12-25T09:50:50.958Z,9.6
2017-12-25T09:51:52.374Z,9.6
2017-12-25T09:52:53.780Z,9.6
2017-12-25T09:53:55.282Z,9.6
2017-12-25T09:54:56.683Z,9.6
2017-12-25T09:55:58.162Z,9.6
2017-12-25T09:56:59.563Z,9.6
2017-12-25T09:58:01.042Z,9.6
2017-12-25T09:59:02.452Z,9.6
2017-12-25T10:00:03.933Z,9.6
2017-12-25T10:01:05.336Z,9.6
2017-12-25T10:02:06.805Z,9.6
2017-12-25T10:03:08.267Z,9.6
2017-12-25T10:04:09.798Z,9.6
2017-12-25T10:05:11.200Z,9.7
2017-12-25T10:06:12.667Z,9.6
2017-12-25T10:07:14.155Z,9.6
2017-12-25T10:08:15.548Z,9.6
2017-12-25T10:09:16.971Z,9.6
2017-12-25T10:10:18.375Z,9.6
2017-12-25T10:11:19.869Z,9.6
2017-12-25T10:12:21.278Z,9.6
2017-12-25T10:13:22.687Z,9.6
2017-12-25T10:14:24.190Z,9.6
2017-12-25T10:15:25.596Z,9.6
2017-12-25T10:16:27.074Z,9.6
2017-12-25T10:17:28.475Z,9.6
2017-12-25T10:18:29.880Z,9.7
2017-12-25T10:19:31.397Z,9.6
2017-12-25T10:20:32.828Z,9.6
2017-12-25T10:21:34.216Z,9.6
2017-12-25T10:22:35.712Z,9.6
2017-12-25T10:23:37.117Z,9.6
2017-12-25T10:24:38.523Z,9.6
2017-12-25T10:25:40.035Z,9.5
2017-12-25T10:26:41.440Z,9.5
2017-12-25T10:27:42.849Z,9.5
2017-12-25T10:28:44.354Z,9.6
2017-12-25T10:29:45.760Z,9.6
2017-12-25T10:30:47.169Z,9.6
2017-12-25T10:31:48.681Z,9.6
2017-12-25T10:32:50.089Z,9.7
2017-12-25T10:33:51.506Z,9.7
2017-12-25T10:34:52.997Z,9.7
2017-12-25T10:35:54.406Z,9.7
2017-12-25T10:36:55.875Z,9.7
2017-12-25T10:37:57.279Z,9.6
2017-12-25T10:38:58.682Z,9.7
2017-12-25T10:40:00.199Z,9.7
2017-12-25T10:41:01.605Z,9.7
2017-12-25T10:42:03.026Z,9.6
2017-12-25T10:43:04.524Z,9.6
2017-12-25T10:44:05.945Z,9.6
2017-12-25T10:45:07.351Z,9.6
2017-12-25T10:46:08.843Z,9.5
2017-12-25T10:47:10.253Z,9.6
2017-12-25T10:48:11.720Z,9.4
2017-12-25T10:49:13.198Z,9.5
2017-12-25T10:50:14.632Z,9.6
2017-12-25T10:51:16.032Z,9.7
2017-12-25T10:52:18.509Z,9.7
2017-12-25T10:53:19.918Z,9.7
2017-12-25T10:54:21.321Z,9.6
2017-12-25T10:55:22.831Z,9.6
2017-12-25T10:56:24.245Z,9.7
2017-12-25T10:57:25.718Z,9.7
2017-12-25T10:58:27.150Z,9.7
2017-12-25T10:59:28.594Z,9.7
2017-12-25T11:00:29.998Z,9.6
2017-12-25T11:01:31.472Z,9.7
2017-12-25T11:02:32.878Z,9.6
2017-12-25T11:03:35.134Z,9.6
2017-12-25T11:04:37.317Z,9.6
2017-12-25T11:05:38.704Z,9.6
2017-12-25T11:06:40.213Z,9.6
2017-12-25T11:07:41.627Z,9.6
2017-12-25T11:08:43.051Z,9.6
2017-12-25T11:09:44.533Z,9.6
2017-12-25T11:10:45.947Z,9.6
2017-12-25T11:11:47.372Z,9.6
2017-12-25T11:12:48.854Z,9.6
2017-12-25T11:13:50.263Z,9.7
2017-12-25T11:14:51.665Z,9.7
2017-12-25T11:15:53.186Z,9.7
2017-12-25T11:16:54.602Z,9.6
2017-12-25T11:17:56.074Z,9.7
2017-12-25T11:18:57.811Z,9.8
2017-12-25T11:19:59.233Z,9.8
2017-12-25T11:21:00.692Z,9.8
2017-12-25T11:22:02.248Z,9.8
2017-12-25T11:23:03.603Z,9.8
2017-12-25T11:24:05.115Z,9.8
2017-12-25T11:25:06.517Z,9.8
2017-12-25T11:26:07.968Z,9.7
2017-12-25T11:27:09.435Z,9.7
2017-12-25T11:28:10.937Z,9.7
2017-12-25T11:29:12.375Z,9.7
2017-12-25T11:30:13.871Z,9.6
2017-12-25T11:31:15.287Z,9.6
2017-12-25T11:32:16.735Z,9.6
2017-12-25T11:33:18.143Z,9.6
2017-12-25T11:34:19.545Z,9.6
2017-12-25T11:35:21.611Z,9.6
2017-12-25T11:36:23.014Z,9.6
2017-12-25T11:37:24.438Z,9.7
2017-12-25T11:38:25.890Z,9.6
2017-12-25T11:39:27.305Z,9.6
2017-12-25T11:40:28.712Z,9.6
2017-12-25T11:41:30.214Z,9.7
2017-12-25T11:42:31.627Z,9.8
2017-12-25T11:43:33.043Z,9.7
2017-12-25T11:44:34.531Z,9.8
2017-12-25T11:45:35.942Z,9.8
2017-12-25T11:46:37.425Z,9.8
2017-12-25T11:47:38.840Z,9.9
2017-12-25T11:48:40.306Z,9.8
2017-12-25T11:49:41.712Z,9.8
2017-12-25T11:50:43.171Z,9.8
2017-12-25T11:51:44.599Z,9.6
2017-12-25T11:52:46.383Z,9.7
2017-12-25T11:53:47.797Z,9.6
2017-12-25T11:54:49.251Z,9.7
2017-12-25T11:55:50.667Z,9.7
2017-12-25T11:56:52.122Z,9.7
2017-12-25T11:57:53.524Z,9.8
2017-12-25T11:58:55.003Z,9.8
2017-12-25T11:59:56.407Z,9.8
2017-12-25T12:00:57.811Z,9.8
2017-12-25T12:01:59.329Z,9.8
2017-12-25T12:03:00.728Z,9.7
2017-12-25T12:04:02.131Z,9.8
2017-12-25T12:05:03.645Z,9.7
2017-12-25T12:06:05.051Z,9.7
2017-12-25T12:07:06.458Z,9.7
2017-12-25T12:08:07.968Z,9.9
2017-12-25T12:09:09.377Z,10.0
2017-12-25T12:10:10.782Z,10.0
2017-12-25T12:11:12.288Z,10.1
2017-12-25T12:12:14.090Z,10.2
2017-12-25T12:13:15.581Z,10.3
2017-12-25T12:14:16.994Z,10.5
2017-12-25T12:15:18.778Z,10.4
2017-12-25T12:16:20.208Z,10.5
2017-12-25T12:17:21.616Z,10.5
2017-12-25T12:18:23.021Z,10.5
2017-12-25T12:19:24.528Z,10.5
2017-12-25T12:20:25.936Z,10.7
2017-12-25T12:21:27.343Z,10.8
2017-12-25T12:22:28.850Z,10.8
2017-12-25T12:23:30.264Z,10.8
2017-12-25T12:24:31.732Z,10.9
2017-12-25T12:25:33.134Z,11.0
2017-12-25T12:26:35.182Z,11.1
2017-12-25T12:27:36.595Z,11.2
2017-12-25T12:28:38.106Z,11.2
2017-12-25T12:29:39.530Z,11.1
2017-12-25T12:30:40.984Z,11.1
2017-12-25T12:31:42.391Z,11.1
2017-12-25T12:32:43.869Z,11.0
2017-12-25T12:33:45.280Z,10.9
2017-12-25T12:34:46.745Z,10.8
2017-12-25T12:35:48.153Z,10.7
2017-12-25T12:36:49.558Z,10.7
2017-12-25T12:37:51.078Z,10.7
2017-12-25T12:38:52.484Z,10.7
2017-12-25T12:39:53.889Z,10.6
2017-12-25T12:40:55.388Z,10.6
2017-12-25T12:41:56.797Z,10.5
2017-12-25T12:42:58.281Z,10.5
2017-12-25T12:43:59.709Z,10.5
2017-12-25T12:45:01.120Z,10.5
2017-12-25T12:46:02.524Z,10.4
2017-12-25T12:47:04.034Z,10.6
2017-12-25T12:48:05.441Z,10.6
2017-12-25T12:49:06.852Z,10.4
2017-12-25T12:50:08.353Z,10.5
2017-12-25T12:51:10.006Z,10.5
2017-12-25T12:52:11.206Z,10.4
2017-12-25T12:53:21.626Z,10.4
2017-12-25T12:54:23.025Z,10.4
2017-12-25T12:55:24.464Z,10.4
2017-12-25T12:56:25.883Z,10.5
2017-12-25T12:57:28.396Z,10.4
2017-12-25T12:58:29.918Z,10.4
2017-12-25T12:59:31.364Z,10.4
2017-12-25T13:00:32.767Z,10.6
2017-12-25T13:01:34.235Z,10.5
2017-12-25T13:02:35.637Z,10.5
2017-12-25T13:03:37.113Z,10.5
2017-12-25T13:04:38.522Z,10.6
2017-12-25T13:05:39.927Z,10.6
2017-12-25T13:06:41.438Z,10.6
2017-12-25T13:07:42.843Z,10.7
2017-12-25T13:08:44.249Z,10.6
2017-12-25T13:09:45.754Z,10.7
2017-12-25T13:10:47.159Z,10.6
2017-12-25T13:11:48.570Z,10.7
2017-12-25T13:12:50.077Z,10.6
2017-12-25T13:13:51.483Z,10.5
2017-12-25T13:14:52.967Z,10.5
2017-12-25T13:15:54.383Z,10.5
2017-12-25T13:16:55.772Z,10.4
2017-12-25T13:17:57.280Z,10.4
2017-12-25T13:18:58.689Z,10.3
2017-12-25T13:20:00.095Z,10.3
2017-12-25T13:21:01.599Z,10.1
2017-12-25T13:22:03.014Z,10.1
2017-12-25T13:23:04.421Z,10.1
2017-12-25T13:24:05.920Z,10.0
2017-12-25T13:25:07.319Z,10.1
2017-12-25T13:26:08.745Z,10.0
2017-12-25T13:27:10.241Z,10.0
2017-12-25T13:28:11.645Z,9.9
2017-12-25T13:29:13.120Z,10.0
2017-12-25T13:30:14.526Z,9.8
2017-12-25T13:31:15.929Z,9.8
2017-12-25T13:32:17.443Z,9.8
2017-12-25T13:33:18.845Z,9.8
2017-12-25T13:34:20.257Z,9.7
2017-12-25T13:35:22.057Z,9.7
2017-12-25T13:36:23.459Z,9.7
2017-12-25T13:37:24.864Z,9.8
2017-12-25T13:38:26.290Z,9.7
2017-12-25T13:39:27.694Z,9.7
2017-12-25T13:40:29.171Z,9.6
2017-12-25T13:41:30.569Z,9.6
2017-12-25T13:42:32.051Z,9.6
2017-12-25T13:43:33.457Z,9.7
2017-12-25T13:44:34.865Z,9.7
2017-12-25T13:45:36.370Z,9.6
2017-12-25T13:46:37.782Z,9.6
2017-12-25T13:47:39.186Z,9.5
2017-12-25T13:48:40.693Z,9.5
2017-12-25T13:49:42.108Z,9.5
2017-12-25T13:50:43.515Z,9.6
2017-12-25T13:51:45.018Z,9.6
2017-12-25T13:52:46.425Z,9.5
2017-12-25T13:53:47.904Z,9.5
2017-12-25T13:54:49.308Z,9.5
2017-12-25T13:55:50.832Z,9.6
2017-12-25T13:56:52.202Z,9.5
2017-12-25T13:57:53.634Z,9.5
2017-12-25T13:58:55.139Z,9.6
2017-12-25T13:59:56.541Z,9.5
2017-12-25T14:00:57.944Z,9.5
2017-12-25T14:01:59.418Z,9.6
2017-12-25T14:03:00.823Z,9.5
2017-12-25T14:04:02.231Z,9.5